sensor_id;sensor_type;location;lat;lon;timestamp;temperature;humidity
67641;SHT31;54434;50.096;20.082;2023-02-10T00:01:59;-5.74;78.29
67641;SHT31;54434;50.096;20.082;2023-02-10T00:04:36;-5.74;78.22
67641;SHT31;54434;50.096;20.082;2023-02-10T00:07:12;-5.74;78.22
67641;SHT31;54434;50.096;20.082;2023-02-10T00:09:49;-5.72;78.30
67641;SHT31;54434;50.096;20.082;2023-02-10T00:12:25;-5.70;78.38
67641;SHT31;54434;50.096;20.082;2023-02-10T00:15:02;-5.68;78.30
67641;SHT31;54434;50.096;20.082;2023-02-10T00:17:40;-5.66;78.34
67641;SHT31;54434;50.096;20.082;2023-02-10T00:20:17;-5.63;78.33
67641;SHT31;54434;50.096;20.082;2023-02-10T00:22:53;-5.59;78.27
67641;SHT31;54434;50.096;20.082;2023-02-10T00:25:29;-5.56;78.13
67641;SHT31;54434;50.096;20.082;2023-02-10T00:28:07;-5.50;78.11
67641;SHT31;54434;50.096;20.082;2023-02-10T00:30:43;-5.45;78.10
67641;SHT31;54434;50.096;20.082;2023-02-10T00:33:19;-5.35;78.10
67641;SHT31;54434;50.096;20.082;2023-02-10T00:35:56;-5.28;78.09
67641;SHT31;54434;50.096;20.082;2023-02-10T00:38:35;-5.22;77.99
67641;SHT31;54434;50.096;20.082;2023-02-10T00:41:13;-5.16;77.87
67641;SHT31;54434;50.096;20.082;2023-02-10T00:43:52;-5.11;77.83
67641;SHT31;54434;50.096;20.082;2023-02-10T00:46:28;-5.08;77.72
67641;SHT31;54434;50.096;20.082;2023-02-10T00:49:05;-5.05;77.61
67641;SHT31;54434;50.096;20.082;2023-02-10T00:51:44;-5.02;77.48
67641;SHT31;54434;50.096;20.082;2023-02-10T00:54:20;-5.00;77.26
67641;SHT31;54434;50.096;20.082;2023-02-10T00:56:56;-4.97;77.22
67641;SHT31;54434;50.096;20.082;2023-02-10T00:59:32;-4.95;77.07
67641;SHT31;54434;50.096;20.082;2023-02-10T01:02:09;-4.94;76.90
67641;SHT31;54434;50.096;20.082;2023-02-10T01:04:46;-4.93;76.79
67641;SHT31;54434;50.096;20.082;2023-02-10T01:07:22;-4.93;76.72
67641;SHT31;54434;50.096;20.082;2023-02-10T01:10:00;-4.91;76.68
67641;SHT31;54434;50.096;20.082;2023-02-10T01:12:38;-4.89;76.63
67641;SHT31;54434;50.096;20.082;2023-02-10T01:15:14;-4.90;76.60
67641;SHT31;54434;50.096;20.082;2023-02-10T01:17:51;-4.91;76.68
67641;SHT31;54434;50.096;20.082;2023-02-10T01:20:28;-4.91;76.62
67641;SHT31;54434;50.096;20.082;2023-02-10T01:23:04;-4.91;76.58
67641;SHT31;54434;50.096;20.082;2023-02-10T01:25:42;-4.92;76.43
67641;SHT31;54434;50.096;20.082;2023-02-10T01:28:19;-4.93;76.31
67641;SHT31;54434;50.096;20.082;2023-02-10T01:30:56;-4.95;76.32
67641;SHT31;54434;50.096;20.082;2023-02-10T01:33:36;-4.95;76.39
67641;SHT31;54434;50.096;20.082;2023-02-10T01:36:15;-4.98;76.30
67641;SHT31;54434;50.096;20.082;2023-02-10T01:38:54;-5.01;76.25
67641;SHT31;54434;50.096;20.082;2023-02-10T01:41:30;-5.05;76.21
67641;SHT31;54434;50.096;20.082;2023-02-10T01:47:44;-5.07;76.38
67641;SHT31;54434;50.096;20.082;2023-02-10T01:50:29;-5.06;76.20
67641;SHT31;54434;50.096;20.082;2023-02-10T01:53:16;-5.08;76.10
67641;SHT31;54434;50.096;20.082;2023-02-10T01:55:56;-5.08;76.00
67641;SHT31;54434;50.096;20.082;2023-02-10T01:58:35;-5.14;76.06
67641;SHT31;54434;50.096;20.082;2023-02-10T02:01:13;-5.22;76.29
67641;SHT31;54434;50.096;20.082;2023-02-10T02:03:50;-5.27;76.48
67641;SHT31;54434;50.096;20.082;2023-02-10T02:06:28;-5.30;76.44
67641;SHT31;54434;50.096;20.082;2023-02-10T02:09:05;-5.34;76.27
67641;SHT31;54434;50.096;20.082;2023-02-10T02:11:45;-5.38;76.17
67641;SHT31;54434;50.096;20.082;2023-02-10T02:14:35;-5.41;76.30
67641;SHT31;54434;50.096;20.082;2023-02-10T02:17:19;-5.41;76.30
67641;SHT31;54434;50.096;20.082;2023-02-10T02:20:30;-5.44;76.36
67641;SHT31;54434;50.096;20.082;2023-02-10T02:24:17;-5.44;76.36
67641;SHT31;54434;50.096;20.082;2023-02-10T02:30:53;-5.42;76.02
67641;SHT31;54434;50.096;20.082;2023-02-10T02:34:02;-5.38;75.98
67641;SHT31;54434;50.096;20.082;2023-02-10T02:36:49;-5.35;75.91
67641;SHT31;54434;50.096;20.082;2023-02-10T02:39:31;-5.34;75.98
67641;SHT31;54434;50.096;20.082;2023-02-10T02:42:19;-5.33;75.94
67641;SHT31;54434;50.096;20.082;2023-02-10T02:45:00;-5.34;75.85
67641;SHT31;54434;50.096;20.082;2023-02-10T02:47:50;-5.34;75.82
67641;SHT31;54434;50.096;20.082;2023-02-10T02:51:03;-5.31;75.82
67641;SHT31;54434;50.096;20.082;2023-02-10T02:53:50;-5.30;75.71
67641;SHT31;54434;50.096;20.082;2023-02-10T02:56:40;-5.30;75.67
67641;SHT31;54434;50.096;20.082;2023-02-10T02:59:25;-5.28;75.75
67641;SHT31;54434;50.096;20.082;2023-02-10T03:02:13;-5.27;75.74
67641;SHT31;54434;50.096;20.082;2023-02-10T03:04:53;-5.25;75.69
67641;SHT31;54434;50.096;20.082;2023-02-10T03:07:29;-5.26;75.59
67641;SHT31;54434;50.096;20.082;2023-02-10T03:10:07;-5.30;75.59
67641;SHT31;54434;50.096;20.082;2023-02-10T03:12:43;-5.33;75.70
67641;SHT31;54434;50.096;20.082;2023-02-10T03:15:20;-5.33;75.71
67641;SHT31;54434;50.096;20.082;2023-02-10T03:17:56;-5.35;75.70
67641;SHT31;54434;50.096;20.082;2023-02-10T03:20:33;-5.37;75.67
67641;SHT31;54434;50.096;20.082;2023-02-10T03:23:09;-5.36;75.70
67641;SHT31;54434;50.096;20.082;2023-02-10T03:25:46;-5.35;75.60
67641;SHT31;54434;50.096;20.082;2023-02-10T03:28:23;-5.36;75.60
67641;SHT31;54434;50.096;20.082;2023-02-10T03:31:02;-5.38;75.64
67641;SHT31;54434;50.096;20.082;2023-02-10T03:33:39;-5.37;75.74
67641;SHT31;54434;50.096;20.082;2023-02-10T03:36:16;-5.37;75.65
67641;SHT31;54434;50.096;20.082;2023-02-10T03:38:52;-5.38;75.74
67641;SHT31;54434;50.096;20.082;2023-02-10T03:41:29;-5.37;75.80
67641;SHT31;54434;50.096;20.082;2023-02-10T03:44:05;-5.38;75.88
67641;SHT31;54434;50.096;20.082;2023-02-10T03:46:42;-5.43;76.00
67641;SHT31;54434;50.096;20.082;2023-02-10T03:49:18;-5.44;76.03
67641;SHT31;54434;50.096;20.082;2023-02-10T03:51:54;-5.44;76.12
67641;SHT31;54434;50.096;20.082;2023-02-10T03:54:31;-5.42;76.06
67641;SHT31;54434;50.096;20.082;2023-02-10T03:57:08;-5.42;76.14
67641;SHT31;54434;50.096;20.082;2023-02-10T03:59:46;-5.42;76.12
67641;SHT31;54434;50.096;20.082;2023-02-10T04:02:22;-5.43;76.04
67641;SHT31;54434;50.096;20.082;2023-02-10T04:04:59;-5.43;75.96
67641;SHT31;54434;50.096;20.082;2023-02-10T04:07:35;-5.45;76.18
67641;SHT31;54434;50.096;20.082;2023-02-10T04:10:12;-5.48;76.19
67641;SHT31;54434;50.096;20.082;2023-02-10T04:12:49;-5.50;76.20
67641;SHT31;54434;50.096;20.082;2023-02-10T04:15:25;-5.52;76.13
67641;SHT31;54434;50.096;20.082;2023-02-10T04:18:01;-5.56;76.00
67641;SHT31;54434;50.096;20.082;2023-02-10T04:20:38;-5.60;76.11
67641;SHT31;54434;50.096;20.082;2023-02-10T04:23:15;-5.64;76.36
67641;SHT31;54434;50.096;20.082;2023-02-10T04:25:51;-5.65;76.40
67641;SHT31;54434;50.096;20.082;2023-02-10T04:28:27;-5.68;76.43
67641;SHT31;54434;50.096;20.082;2023-02-10T04:31:05;-5.71;76.50
67641;SHT31;54434;50.096;20.082;2023-02-10T04:33:42;-5.73;76.51
67641;SHT31;54434;50.096;20.082;2023-02-10T04:36:18;-5.77;76.47
67641;SHT31;54434;50.096;20.082;2023-02-10T04:38:54;-5.78;76.67
67641;SHT31;54434;50.096;20.082;2023-02-10T04:41:31;-5.76;76.85
67641;SHT31;54434;50.096;20.082;2023-02-10T04:44:07;-5.74;76.90
67641;SHT31;54434;50.096;20.082;2023-02-10T04:46:43;-5.72;76.95
67641;SHT31;54434;50.096;20.082;2023-02-10T04:49:21;-5.71;77.13
67641;SHT31;54434;50.096;20.082;2023-02-10T04:51:59;-5.67;77.30
67641;SHT31;54434;50.096;20.082;2023-02-10T04:54:36;-5.63;77.32
67641;SHT31;54434;50.096;20.082;2023-02-10T04:57:12;-5.58;77.36
67641;SHT31;54434;50.096;20.082;2023-02-10T04:59:48;-5.53;77.30
67641;SHT31;54434;50.096;20.082;2023-02-10T05:02:25;-5.50;77.30
67641;SHT31;54434;50.096;20.082;2023-02-10T05:05:01;-5.44;77.32
67641;SHT31;54434;50.096;20.082;2023-02-10T05:07:38;-5.40;77.31
67641;SHT31;54434;50.096;20.082;2023-02-10T05:10:15;-5.36;77.26
67641;SHT31;54434;50.096;20.082;2023-02-10T05:12:52;-5.34;77.14
67641;SHT31;54434;50.096;20.082;2023-02-10T05:15:29;-5.29;77.16
67641;SHT31;54434;50.096;20.082;2023-02-10T05:18:05;-5.24;77.08
67641;SHT31;54434;50.096;20.082;2023-02-10T05:20:41;-5.20;76.96
67641;SHT31;54434;50.096;20.082;2023-02-10T05:23:18;-5.17;76.86
67641;SHT31;54434;50.096;20.082;2023-02-10T05:25:54;-5.13;76.77
67641;SHT31;54434;50.096;20.082;2023-02-10T05:28:30;-5.10;76.59
67641;SHT31;54434;50.096;20.082;2023-02-10T05:31:07;-5.05;76.45
67641;SHT31;54434;50.096;20.082;2023-02-10T05:33:43;-5.01;76.27
67641;SHT31;54434;50.096;20.082;2023-02-10T05:36:19;-5.00;76.19
67641;SHT31;54434;50.096;20.082;2023-02-10T05:38:58;-5.01;76.23
67641;SHT31;54434;50.096;20.082;2023-02-10T05:41:53;-5.01;76.20
67641;SHT31;54434;50.096;20.082;2023-02-10T05:44:32;-5.02;76.20
67641;SHT31;54434;50.096;20.082;2023-02-10T05:47:08;-5.05;76.20
67641;SHT31;54434;50.096;20.082;2023-02-10T05:49:44;-5.07;76.14
67641;SHT31;54434;50.096;20.082;2023-02-10T05:52:21;-5.10;76.13
67641;SHT31;54434;50.096;20.082;2023-02-10T05:54:57;-5.12;76.18
67641;SHT31;54434;50.096;20.082;2023-02-10T05:57:34;-5.13;76.10
67641;SHT31;54434;50.096;20.082;2023-02-10T06:00:13;-5.15;76.14
67641;SHT31;54434;50.096;20.082;2023-02-10T06:02:51;-5.15;76.12
67641;SHT31;54434;50.096;20.082;2023-02-10T06:05:28;-5.17;76.07
67641;SHT31;54434;50.096;20.082;2023-02-10T06:08:04;-5.18;76.03
67641;SHT31;54434;50.096;20.082;2023-02-10T06:10:41;-5.20;76.01
67641;SHT31;54434;50.096;20.082;2023-02-10T06:13:18;-5.22;75.98
67641;SHT31;54434;50.096;20.082;2023-02-10T06:15:54;-5.21;76.00
67641;SHT31;54434;50.096;20.082;2023-02-10T06:18:33;-5.20;76.01
67641;SHT31;54434;50.096;20.082;2023-02-10T06:21:09;-5.21;75.98
67641;SHT31;54434;50.096;20.082;2023-02-10T06:23:46;-5.20;75.99
67641;SHT31;54434;50.096;20.082;2023-02-10T06:26:22;-5.18;76.00
67641;SHT31;54434;50.096;20.082;2023-02-10T06:28:59;-5.17;76.00
67641;SHT31;54434;50.096;20.082;2023-02-10T06:31:35;-5.15;76.00
67641;SHT31;54434;50.096;20.082;2023-02-10T06:34:12;-5.11;75.91
67641;SHT31;54434;50.096;20.082;2023-02-10T06:36:48;-5.10;75.82
67641;SHT31;54434;50.096;20.082;2023-02-10T06:39:25;-5.09;75.86
67641;SHT31;54434;50.096;20.082;2023-02-10T06:42:03;-5.02;75.90
67641;SHT31;54434;50.096;20.082;2023-02-10T06:44:39;-4.96;75.92
67641;SHT31;54434;50.096;20.082;2023-02-10T06:47:16;-4.86;75.86
67641;SHT31;54434;50.096;20.082;2023-02-10T06:49:52;-4.78;75.69
67641;SHT31;54434;50.096;20.082;2023-02-10T06:52:28;-4.69;75.59
67641;SHT31;54434;50.096;20.082;2023-02-10T06:55:07;-4.62;75.47
67641;SHT31;54434;50.096;20.082;2023-02-10T06:57:44;-4.55;75.40
67641;SHT31;54434;50.096;20.082;2023-02-10T07:00:20;-4.48;75.32
67641;SHT31;54434;50.096;20.082;2023-02-10T07:02:57;-4.38;75.26
67641;SHT31;54434;50.096;20.082;2023-02-10T07:05:33;-4.27;75.04
67641;SHT31;54434;50.096;20.082;2023-02-10T07:08:12;-4.15;74.92
67641;SHT31;54434;50.096;20.082;2023-02-10T07:10:48;-4.04;74.71
67641;SHT31;54434;50.096;20.082;2023-02-10T07:13:24;-3.92;74.46
67641;SHT31;54434;50.096;20.082;2023-02-10T07:16:01;-3.80;74.19
67641;SHT31;54434;50.096;20.082;2023-02-10T07:18:38;-3.67;74.04
67641;SHT31;54434;50.096;20.082;2023-02-10T07:21:14;-3.55;73.69
67641;SHT31;54434;50.096;20.082;2023-02-10T07:23:51;-3.43;73.39
67641;SHT31;54434;50.096;20.082;2023-02-10T07:26:27;-3.30;73.08
67641;SHT31;54434;50.096;20.082;2023-02-10T07:29:04;-3.18;73.01
67641;SHT31;54434;50.096;20.082;2023-02-10T07:31:40;-3.06;72.79
67641;SHT31;54434;50.096;20.082;2023-02-10T07:34:18;-2.95;72.29
67641;SHT31;54434;50.096;20.082;2023-02-10T07:36:55;-2.83;71.94
67641;SHT31;54434;50.096;20.082;2023-02-10T07:39:33;-2.69;71.64
67641;SHT31;54434;50.096;20.082;2023-02-10T07:42:09;-2.53;71.20
67641;SHT31;54434;50.096;20.082;2023-02-10T07:45:35;-2.24;70.71
67641;SHT31;54434;50.096;20.082;2023-02-10T07:48:12;-1.96;70.13
67641;SHT31;54434;50.096;20.082;2023-02-10T07:50:48;-1.60;69.90
67641;SHT31;54434;50.096;20.082;2023-02-10T07:53:25;-1.24;68.88
67641;SHT31;54434;50.096;20.082;2023-02-10T07:56:01;-0.87;68.45
67641;SHT31;54434;50.096;20.082;2023-02-10T07:58:38;-0.48;67.09
67641;SHT31;54434;50.096;20.082;2023-02-10T08:01:15;-0.17;65.93
67641;SHT31;54434;50.096;20.082;2023-02-10T08:03:51;0.14;65.10
67641;SHT31;54434;50.096;20.082;2023-02-10T08:06:29;0.37;64.04
67641;SHT31;54434;50.096;20.082;2023-02-10T08:09:06;0.58;63.53
67641;SHT31;54434;50.096;20.082;2023-02-10T08:11:43;0.74;61.75
67641;SHT31;54434;50.096;20.082;2023-02-10T08:14:20;0.95;62.31
67641;SHT31;54434;50.096;20.082;2023-02-10T08:16:56;1.21;61.74
67641;SHT31;54434;50.096;20.082;2023-02-10T08:19:33;1.47;61.34
67641;SHT31;54434;50.096;20.082;2023-02-10T08:22:10;1.75;60.75
67641;SHT31;54434;50.096;20.082;2023-02-10T08:24:47;1.89;59.32
67641;SHT31;54434;50.096;20.082;2023-02-10T08:27:23;1.97;58.98
67641;SHT31;54434;50.096;20.082;2023-02-10T08:30:01;2.12;58.36
67641;SHT31;54434;50.096;20.082;2023-02-10T08:32:39;2.24;57.36
67641;SHT31;54434;50.096;20.082;2023-02-10T08:35:18;2.43;57.39
67641;SHT31;54434;50.096;20.082;2023-02-10T08:37:55;2.57;56.19
67641;SHT31;54434;50.096;20.082;2023-02-10T08:40:31;2.65;56.19
67641;SHT31;54434;50.096;20.082;2023-02-10T08:43:08;2.81;55.86
67641;SHT31;54434;50.096;20.082;2023-02-10T08:45:45;2.93;54.74
67641;SHT31;54434;50.096;20.082;2023-02-10T08:48:22;2.98;54.20
67641;SHT31;54434;50.096;20.082;2023-02-10T08:51:00;2.99;54.06
67641;SHT31;54434;50.096;20.082;2023-02-10T08:53:40;3.12;53.84
67641;SHT31;54434;50.096;20.082;2023-02-10T08:56:18;3.19;53.57
67641;SHT31;54434;50.096;20.082;2023-02-10T08:58:54;3.27;53.60
67641;SHT31;54434;50.096;20.082;2023-02-10T09:01:31;3.41;54.12
67641;SHT31;54434;50.096;20.082;2023-02-10T09:04:07;3.43;52.47
67641;SHT31;54434;50.096;20.082;2023-02-10T09:06:44;3.41;52.53
67641;SHT31;54434;50.096;20.082;2023-02-10T09:09:22;3.31;52.57
67641;SHT31;54434;50.096;20.082;2023-02-10T09:11:58;3.22;52.46
67641;SHT31;54434;50.096;20.082;2023-02-10T09:14:36;3.10;52.46
67641;SHT31;54434;50.096;20.082;2023-02-10T09:17:13;3.08;53.07
67641;SHT31;54434;50.096;20.082;2023-02-10T09:19:50;3.06;51.99
67641;SHT31;54434;50.096;20.082;2023-02-10T09:22:26;2.90;51.12
67641;SHT31;54434;50.096;20.082;2023-02-10T09:25:03;2.75;52.07
67641;SHT31;54434;50.096;20.082;2023-02-10T09:27:40;2.74;52.57
67641;SHT31;54434;50.096;20.082;2023-02-10T09:30:16;2.72;52.25
67641;SHT31;54434;50.096;20.082;2023-02-10T09:32:53;2.69;52.37
67641;SHT31;54434;50.096;20.082;2023-02-10T09:35:30;2.64;52.29
67641;SHT31;54434;50.096;20.082;2023-02-10T09:38:06;2.61;52.34
67641;SHT31;54434;50.096;20.082;2023-02-10T09:40:49;2.64;52.49
67641;SHT31;54434;50.096;20.082;2023-02-10T09:44:00;2.72;52.38
67641;SHT31;54434;50.096;20.082;2023-02-10T09:47:03;2.71;52.16
67641;SHT31;54434;50.096;20.082;2023-02-10T09:50:16;2.75;52.24
67641;SHT31;54434;50.096;20.082;2023-02-10T09:53:12;2.81;52.53
67641;SHT31;54434;50.096;20.082;2023-02-10T09:55:54;2.85;51.79
67641;SHT31;54434;50.096;20.082;2023-02-10T09:58:35;2.83;52.08
67641;SHT31;54434;50.096;20.082;2023-02-10T10:01:20;2.89;52.45
67641;SHT31;54434;50.096;20.082;2023-02-10T10:04:03;2.96;52.21
67641;SHT31;54434;50.096;20.082;2023-02-10T10:06:46;3.03;52.82
67641;SHT31;54434;50.096;20.082;2023-02-10T10:09:32;3.09;52.53
67641;SHT31;54434;50.096;20.082;2023-02-10T10:12:17;3.14;52.14
67641;SHT31;54434;50.096;20.082;2023-02-10T10:14:55;3.18;52.56
67641;SHT31;54434;50.096;20.082;2023-02-10T10:17:53;3.27;52.38
67641;SHT31;54434;50.096;20.082;2023-02-10T10:20:52;3.20;51.94
67641;SHT31;54434;50.096;20.082;2023-02-10T10:23:46;3.17;51.98
67641;SHT31;54434;50.096;20.082;2023-02-10T10:26:47;3.18;52.70
67641;SHT31;54434;50.096;20.082;2023-02-10T10:29:42;3.23;52.77
67641;SHT31;54434;50.096;20.082;2023-02-10T10:32:35;3.29;52.59
67641;SHT31;54434;50.096;20.082;2023-02-10T10:35:19;3.42;52.35
67641;SHT31;54434;50.096;20.082;2023-02-10T10:37:58;3.60;52.06
67641;SHT31;54434;50.096;20.082;2023-02-10T10:40:40;3.79;51.94
67641;SHT31;54434;50.096;20.082;2023-02-10T10:43:23;3.88;51.27
67641;SHT31;54434;50.096;20.082;2023-02-10T10:46:05;3.96;51.93
67641;SHT31;54434;50.096;20.082;2023-02-10T10:48:51;4.13;51.16
67641;SHT31;54434;50.096;20.082;2023-02-10T10:51:29;4.13;50.54
67641;SHT31;54434;50.096;20.082;2023-02-10T10:54:10;4.04;50.82
67641;SHT31;54434;50.096;20.082;2023-02-10T10:56:53;4.04;50.73
67641;SHT31;54434;50.096;20.082;2023-02-10T10:59:35;4.01;50.99
67641;SHT31;54434;50.096;20.082;2023-02-10T11:02:19;4.06;50.99
67641;SHT31;54434;50.096;20.082;2023-02-10T11:05:04;4.11;50.75
67641;SHT31;54434;50.096;20.082;2023-02-10T11:07:48;4.18;50.65
67641;SHT31;54434;50.096;20.082;2023-02-10T11:10:32;4.26;50.31
67641;SHT31;54434;50.096;20.082;2023-02-10T11:13:19;4.26;50.19
67641;SHT31;54434;50.096;20.082;2023-02-10T11:16:03;4.28;50.21
67641;SHT31;54434;50.096;20.082;2023-02-10T11:18:55;4.28;50.18
67641;SHT31;54434;50.096;20.082;2023-02-10T11:21:36;4.33;50.52
67641;SHT31;54434;50.096;20.082;2023-02-10T11:24:19;4.43;50.35
67641;SHT31;54434;50.096;20.082;2023-02-10T11:27:01;4.45;49.88
67641;SHT31;54434;50.096;20.082;2023-02-10T11:29:49;4.51;50.31
67641;SHT31;54434;50.096;20.082;2023-02-10T11:32:29;4.58;49.67
67641;SHT31;54434;50.096;20.082;2023-02-10T11:35:17;4.56;49.55
67641;SHT31;54434;50.096;20.082;2023-02-10T11:37:56;4.62;50.10
67641;SHT31;54434;50.096;20.082;2023-02-10T11:40:50;4.70;49.76
67641;SHT31;54434;50.096;20.082;2023-02-10T11:43:30;4.75;49.58
67641;SHT31;54434;50.096;20.082;2023-02-10T11:46:22;4.83;49.30
67641;SHT31;54434;50.096;20.082;2023-02-10T11:49:03;4.90;49.42
67641;SHT31;54434;50.096;20.082;2023-02-10T11:51:54;4.91;49.34
67641;SHT31;54434;50.096;20.082;2023-02-10T11:54:32;5.02;49.32
67641;SHT31;54434;50.096;20.082;2023-02-10T11:57:17;5.11;49.23
67641;SHT31;54434;50.096;20.082;2023-02-10T12:00:28;5.14;49.48
67641;SHT31;54434;50.096;20.082;2023-02-10T12:03:33;5.22;49.40
67641;SHT31;54434;50.096;20.082;2023-02-10T12:06:23;5.29;49.42
67641;SHT31;54434;50.096;20.082;2023-02-10T12:09:12;5.30;49.01
67641;SHT31;54434;50.096;20.082;2023-02-10T12:13:09;5.22;48.70
67641;SHT31;54434;50.096;20.082;2023-02-10T12:16:12;5.20;48.75
67641;SHT31;54434;50.096;20.082;2023-02-10T12:19:00;5.11;48.99
67641;SHT31;54434;50.096;20.082;2023-02-10T12:22:08;4.94;48.94
67641;SHT31;54434;50.096;20.082;2023-02-10T12:25:07;4.79;49.01
67641;SHT31;54434;50.096;20.082;2023-02-10T12:27:59;4.66;49.54
67641;SHT31;54434;50.096;20.082;2023-02-10T12:30:46;4.57;49.82
67641;SHT31;54434;50.096;20.082;2023-02-10T12:33:55;4.47;49.84
67641;SHT31;54434;50.096;20.082;2023-02-10T12:37:06;4.39;50.45
67641;SHT31;54434;50.096;20.082;2023-02-10T12:40:18;4.32;50.33
67641;SHT31;54434;50.096;20.082;2023-02-10T12:43:18;4.21;50.87
67641;SHT31;54434;50.096;20.082;2023-02-10T12:46:24;4.11;51.01
67641;SHT31;54434;50.096;20.082;2023-02-10T12:49:24;4.07;51.26
67641;SHT31;54434;50.096;20.082;2023-02-10T12:52:18;4.01;51.35
67641;SHT31;54434;50.096;20.082;2023-02-10T12:55:04;3.98;51.70
67641;SHT31;54434;50.096;20.082;2023-02-10T12:57:51;3.96;51.82
67641;SHT31;54434;50.096;20.082;2023-02-10T13:00:37;3.97;52.31
67641;SHT31;54434;50.096;20.082;2023-02-10T13:03:22;3.94;52.18
67641;SHT31;54434;50.096;20.082;2023-02-10T13:06:17;3.98;52.53
67641;SHT31;54434;50.096;20.082;2023-02-10T13:09:05;4.02;52.77
67641;SHT31;54434;50.096;20.082;2023-02-10T13:12:05;4.08;52.95
67641;SHT31;54434;50.096;20.082;2023-02-10T13:14:54;4.07;52.58
67641;SHT31;54434;50.096;20.082;2023-02-10T13:17:42;4.03;52.86
67641;SHT31;54434;50.096;20.082;2023-02-10T13:20:33;4.01;53.07
67641;SHT31;54434;50.096;20.082;2023-02-10T13:23:21;4.01;52.94
67641;SHT31;54434;50.096;20.082;2023-02-10T13:26:29;3.98;53.28
67641;SHT31;54434;50.096;20.082;2023-02-10T13:29:21;4.01;53.54
67641;SHT31;54434;50.096;20.082;2023-02-10T13:35:25;4.04;53.73
67641;SHT31;54434;50.096;20.082;2023-02-10T13:38:09;4.01;54.05
67641;SHT31;54434;50.096;20.082;2023-02-10T13:40:54;4.00;54.03
67641;SHT31;54434;50.096;20.082;2023-02-10T13:43:53;3.99;54.09
67641;SHT31;54434;50.096;20.082;2023-02-10T13:46:32;3.96;54.41
67641;SHT31;54434;50.096;20.082;2023-02-10T13:49:15;3.94;54.27
67641;SHT31;54434;50.096;20.082;2023-02-10T13:52:05;3.91;54.39
67641;SHT31;54434;50.096;20.082;2023-02-10T13:54:57;3.87;54.48
67641;SHT31;54434;50.096;20.082;2023-02-10T13:57:59;3.84;55.25
67641;SHT31;54434;50.096;20.082;2023-02-10T14:01:00;3.83;55.45
67641;SHT31;54434;50.096;20.082;2023-02-10T14:03:57;3.84;55.57
67641;SHT31;54434;50.096;20.082;2023-02-10T14:06:37;3.89;55.62
67641;SHT31;54434;50.096;20.082;2023-02-10T14:09:31;3.90;55.77
67641;SHT31;54434;50.096;20.082;2023-02-10T14:15:24;3.86;55.60
67641;SHT31;54434;50.096;20.082;2023-02-10T14:18:06;3.82;55.96
67641;SHT31;54434;50.096;20.082;2023-02-10T14:21:02;3.82;56.12
67641;SHT31;54434;50.096;20.082;2023-02-10T14:23:49;3.81;56.26
67641;SHT31;54434;50.096;20.082;2023-02-10T14:26:31;3.76;56.14
67641;SHT31;54434;50.096;20.082;2023-02-10T14:29:12;3.74;56.42
67641;SHT31;54434;50.096;20.082;2023-02-10T14:31:53;3.69;56.59
67641;SHT31;54434;50.096;20.082;2023-02-10T14:34:33;3.61;56.64
67641;SHT31;54434;50.096;20.082;2023-02-10T14:37:16;3.52;56.63
67641;SHT31;54434;50.096;20.082;2023-02-10T14:39:56;3.40;56.92
67641;SHT31;54434;50.096;20.082;2023-02-10T14:42:35;3.30;57.17
67641;SHT31;54434;50.096;20.082;2023-02-10T14:45:21;3.21;57.33
67641;SHT31;54434;50.096;20.082;2023-02-10T14:48:02;3.11;57.65
67641;SHT31;54434;50.096;20.082;2023-02-10T14:50:46;3.01;57.91
67641;SHT31;54434;50.096;20.082;2023-02-10T14:53:37;2.90;58.21
67641;SHT31;54434;50.096;20.082;2023-02-10T14:56:19;2.79;58.43
67641;SHT31;54434;50.096;20.082;2023-02-10T14:59:00;2.66;58.74
67641;SHT31;54434;50.096;20.082;2023-02-10T15:01:37;2.57;58.99
67641;SHT31;54434;50.096;20.082;2023-02-10T15:04:17;2.48;59.17
67641;SHT31;54434;50.096;20.082;2023-02-10T15:06:57;2.43;59.42
67641;SHT31;54434;50.096;20.082;2023-02-10T15:09:36;2.36;59.57
67641;SHT31;54434;50.096;20.082;2023-02-10T15:12:14;2.29;59.90
67641;SHT31;54434;50.096;20.082;2023-02-10T15:14:58;2.20;60.35
67641;SHT31;54434;50.096;20.082;2023-02-10T15:17:40;2.11;60.82
67641;SHT31;54434;50.096;20.082;2023-02-10T15:20:27;2.02;61.29
67641;SHT31;54434;50.096;20.082;2023-02-10T15:23:13;1.93;61.68
67641;SHT31;54434;50.096;20.082;2023-02-10T15:26:04;1.87;62.06
67641;SHT31;54434;50.096;20.082;2023-02-10T15:29:10;1.84;62.39
67641;SHT31;54434;50.096;20.082;2023-02-10T15:31:57;1.85;62.53
67641;SHT31;54434;50.096;20.082;2023-02-10T15:34:37;1.86;62.78
67641;SHT31;54434;50.096;20.082;2023-02-10T15:37:19;1.87;63.17
67641;SHT31;54434;50.096;20.082;2023-02-10T15:40:01;1.88;63.22
67641;SHT31;54434;50.096;20.082;2023-02-10T15:43:05;1.90;63.36
67641;SHT31;54434;50.096;20.082;2023-02-10T15:46:15;1.92;63.01
67641;SHT31;54434;50.096;20.082;2023-02-10T15:49:05;1.96;63.07
67641;SHT31;54434;50.096;20.082;2023-02-10T15:51:46;1.97;63.23
67641;SHT31;54434;50.096;20.082;2023-02-10T15:54:28;1.99;63.18
67641;SHT31;54434;50.096;20.082;2023-02-10T15:57:11;2.01;63.23
67641;SHT31;54434;50.096;20.082;2023-02-10T15:59:49;2.02;63.23
67641;SHT31;54434;50.096;20.082;2023-02-10T16:02:27;2.02;63.50
67641;SHT31;54434;50.096;20.082;2023-02-10T16:05:05;2.04;63.53
67641;SHT31;54434;50.096;20.082;2023-02-10T16:07:42;2.05;63.53
67641;SHT31;54434;50.096;20.082;2023-02-10T16:10:22;2.05;63.71
67641;SHT31;54434;50.096;20.082;2023-02-10T16:13:00;2.06;63.85
67641;SHT31;54434;50.096;20.082;2023-02-10T16:15:38;2.06;64.08
67641;SHT31;54434;50.096;20.082;2023-02-10T16:18:19;2.07;64.14
67641;SHT31;54434;50.096;20.082;2023-02-10T16:21:01;2.07;64.41
67641;SHT31;54434;50.096;20.082;2023-02-10T16:23:39;2.08;64.25
67641;SHT31;54434;50.096;20.082;2023-02-10T16:26:22;2.09;64.32
67641;SHT31;54434;50.096;20.082;2023-02-10T16:29:00;2.10;64.38
67641;SHT31;54434;50.096;20.082;2023-02-10T16:31:37;2.08;64.30
67641;SHT31;54434;50.096;20.082;2023-02-10T16:34:14;2.08;64.22
67641;SHT31;54434;50.096;20.082;2023-02-10T16:36:52;2.07;64.12
67641;SHT31;54434;50.096;20.082;2023-02-10T16:39:31;2.07;64.18
67641;SHT31;54434;50.096;20.082;2023-02-10T16:42:08;2.06;64.13
67641;SHT31;54434;50.096;20.082;2023-02-10T16:44:45;2.05;63.96
67641;SHT31;54434;50.096;20.082;2023-02-10T16:47:23;2.06;63.93
67641;SHT31;54434;50.096;20.082;2023-02-10T16:50:00;2.05;64.01
67641;SHT31;54434;50.096;20.082;2023-02-10T16:52:38;2.06;63.96
67641;SHT31;54434;50.096;20.082;2023-02-10T16:55:15;2.06;63.96
67641;SHT31;54434;50.096;20.082;2023-02-10T16:57:53;2.06;63.94
67641;SHT31;54434;50.096;20.082;2023-02-10T17:00:31;2.06;64.00
67641;SHT31;54434;50.096;20.082;2023-02-10T17:03:08;2.07;64.09
67641;SHT31;54434;50.096;20.082;2023-02-10T17:05:46;2.06;63.81
67641;SHT31;54434;50.096;20.082;2023-02-10T17:08:24;2.06;63.83
67641;SHT31;54434;50.096;20.082;2023-02-10T17:11:01;2.07;63.64
67641;SHT31;54434;50.096;20.082;2023-02-10T17:13:39;2.06;63.85